Time;durP1;ratioP1;P1;durP2;ratioP2;P2;SDS_P1;SDS_P2;PMS_P1;PMS_P2;Temp;Humidity;BMP_temperature;BMP_pressure;BME280_temperature;BME280_humidity;BME280_pressure;Samples;Min_cycle;Max_cycle;Signal;HPM_P1;HPM_P2
2023/06/11 00:01:14;;;;;;;181.68;66.95;;;;;;;21.47;47.15;101849.25;4993470;28;20026;-67
2023/06/11 00:03:40;;;;;;;181.15;66.35;;;;;;;21.44;47.75;101856.41;4992679;28;20447;-67
2023/06/11 00:06:07;;;;;;;179.15;65.80;;;;;;;21.44;47.08;101861.75;4981716;28;20049;-67
2023/06/11 00:08:32;;;;;;;176.07;65.55;;;;;;;21.44;47.14;101867.06;4991134;28;20057;-67
2023/06/11 00:10:57;;;;;;;176.48;65.78;;;;;;;21.41;47.04;101859.22;4992490;28;20048;-67
2023/06/11 00:13:22;;;;;;;183.13;67.10;;;;;;;21.40;47.36;101860.16;4991024;28;20032;-67
2023/06/11 00:15:48;;;;;;;182.90;66.25;;;;;;;21.39;47.53;101862.88;4982043;28;20022;-67
2023/06/11 00:18:14;;;;;;;187.40;68.93;;;;;;;21.38;47.23;101859.38;5026382;22;20049;-68
2023/06/11 00:20:40;;;;;;;178.68;67.68;;;;;;;21.38;47.32;101855.84;5030684;28;20092;-68
2023/06/11 00:23:06;;;;;;;190.45;69.97;;;;;;;21.37;47.98;101868.25;5030046;28;20026;-69
2023/06/11 00:25:32;;;;;;;185.10;70.63;;;;;;;21.37;47.40;101862.94;5029324;28;20403;-68
2023/06/11 00:27:57;;;;;;;182.98;72.30;;;;;;;21.37;47.12;101856.78;5024662;28;20026;-68
2023/06/11 00:30:23;;;;;;;182.38;68.00;;;;;;;21.35;47.42;101855.97;5012009;28;20044;-67
2023/06/11 00:32:48;;;;;;;184.82;70.55;;;;;;;21.37;47.68;101854.97;5010490;28;20037;-68
2023/06/11 00:35:13;;;;;;;184.68;72.05;;;;;;;21.37;47.73;101854.13;5010788;28;20033;-68
2023/06/11 00:37:39;;;;;;;188.43;70.78;;;;;;;21.34;47.49;101849.81;5011482;28;20486;-69
2023/06/11 00:40:04;;;;;;;185.68;66.18;;;;;;;21.36;47.58;101847.91;5010565;28;20052;-69
2023/06/11 00:42:33;;;;;;;187.23;66.35;;;;;;;21.36;47.42;101845.25;5010308;28;20034;-68
2023/06/11 00:45:01;;;;;;;183.77;66.65;;;;;;;21.33;47.24;101853.38;5009170;28;20034;-69
2023/06/11 00:47:26;;;;;;;185.02;66.55;;;;;;;21.33;47.65;101852.53;5010460;28;20390;-69
2023/06/11 00:49:52;;;;;;;181.30;65.15;;;;;;;21.32;47.88;101854.31;5010245;28;20026;-68
2023/06/11 00:52:19;;;;;;;183.52;65.90;;;;;;;21.33;47.67;101852.53;5010582;28;20022;-69
2023/06/11 00:54:45;;;;;;;180.55;65.20;;;;;;;21.33;47.72;101848.06;4992845;28;20041;-67
2023/06/11 00:57:10;;;;;;;186.45;64.93;;;;;;;21.32;47.95;101856.97;5011394;28;20057;-67
2023/06/11 00:59:37;;;;;;;186.90;67.35;;;;;;;21.32;47.45;101845.47;4993633;28;20475;-67
2023/06/11 01:02:21;;;;;;;183.88;66.32;;;;;;;21.31;47.37;101855.25;4994048;28;20026;-67
2023/06/11 01:04:47;;;;;;;182.77;65.22;;;;;;;21.30;47.47;101856.19;5008815;28;20092;-67
2023/06/11 01:07:15;;;;;;;179.73;64.72;;;;;;;21.31;47.73;101851.72;5010203;28;20487;-67
2023/06/11 01:09:42;;;;;;;184.02;66.78;;;;;;;21.30;47.95;101861.50;4992543;28;20083;-67
2023/06/11 01:12:09;;;;;;;181.00;63.60;;;;;;;21.30;47.48;101860.59;5009287;28;20025;-67
2023/06/11 01:14:34;;;;;;;180.82;64.90;;;;;;;21.28;47.74;101855.38;5009200;28;20029;-67
2023/06/11 01:17:05;;;;;;;186.00;65.68;;;;;;;21.27;47.98;101854.50;5012095;28;20165;-68
2023/06/11 01:19:58;;;;;;;184.90;65.80;;;;;;;21.27;47.93;101854.50;5012621;28;20033;-68
2023/06/11 01:23:01;;;;;;;179.35;63.63;;;;;;;21.26;48.12;101862.56;4987256;28;20030;-68
2023/06/11 01:25:45;;;;;;;184.85;67.22;;;;;;;21.25;47.68;101856.34;4983406;28;20132;-67
2023/06/11 01:28:16;;;;;;;181.07;65.25;;;;;;;21.24;47.70;101859.09;5014664;28;20036;-67
2023/06/11 01:30:45;;;;;;;180.60;64.88;;;;;;;21.22;47.93;101861.81;5013599;28;20034;-68
2023/06/11 01:33:10;;;;;;;185.10;66.25;;;;;;;21.22;48.09;101861.81;5012779;28;20014;-66
2023/06/11 01:35:36;;;;;;;182.45;66.00;;;;;;;21.22;48.03;101853.84;5010990;28;20032;-67
2023/06/11 01:38:02;;;;;;;179.82;65.55;;;;;;;21.22;48.12;101855.66;5014684;28;20026;-67
2023/06/11 01:40:28;;;;;;;183.80;67.32;;;;;;;21.23;47.80;101862.69;5013165;28;20030;-67
2023/06/11 01:42:54;;;;;;;187.73;65.45;;;;;;;21.22;48.02;101863.63;5012694;28;20031;-68
2023/06/11 01:45:22;;;;;;;180.23;65.20;;;;;;;21.21;48.08;101859.22;5012924;28;20033;-68
2023/06/11 01:47:49;;;;;;;181.50;65.60;;;;;;;21.20;47.81;101868.13;5013385;28;20029;-67
2023/06/11 01:50:15;;;;;;;179.82;64.47;;;;;;;21.20;48.32;101868.13;5014506;28;20037;-68
2023/06/11 01:52:40;;;;;;;180.32;65.55;;;;;;;21.20;47.71;101863.69;5013268;28;20022;-68
2023/06/11 01:55:06;;;;;;;186.93;67.28;;;;;;;21.19;48.02;101869.91;5011855;28;20586;-67
2023/06/11 01:57:32;;;;;;;185.15;66.13;;;;;;;21.19;48.04;101866.41;5012788;28;20040;-67
2023/06/11 01:59:58;;;;;;;175.63;64.07;;;;;;;21.17;47.57;101868.25;4996491;28;20113;-67
2023/06/11 02:02:23;;;;;;;184.85;65.60;;;;;;;21.16;47.62;101871.81;5012640;28;20030;-67
2023/06/11 02:04:49;;;;;;;181.85;65.38;;;;;;;21.14;47.93;101860.41;5013854;28;20022;-67
2023/06/11 02:07:14;;;;;;;192.40;66.78;;;;;;;21.14;48.17;101871.91;5011996;28;20038;-67
2023/06/11 02:09:40;;;;;;;182.75;66.93;;;;;;;21.13;47.96;101866.66;5005859;28;20018;-68
2023/06/11 02:12:06;;;;;;;184.32;65.47;;;;;;;21.11;48.18;101862.25;5013738;28;20037;-67
2023/06/11 02:14:31;;;;;;;181.77;65.30;;;;;;;21.10;48.16;101857.91;5012363;28;20038;-68
2023/06/11 02:16:57;;;;;;;182.05;65.20;;;;;;;21.11;47.85;101859.59;5013849;28;20036;-67
2023/06/11 02:19:22;;;;;;;185.60;65.28;;;;;;;21.10;48.06;101865.88;5012888;28;20034;-67
2023/06/11 02:21:47;;;;;;;183.75;65.43;;;;;;;21.07;48.08;101863.31;5004093;28;20030;-67
2023/06/11 02:24:13;;;;;;;198.23;67.15;;;;;;;21.08;47.71;101859.75;5012030;28;20062;-67
2023/06/11 02:26:38;;;;;;;183.25;65.93;;;;;;;21.07;48.29;101858.00;5012295;28;20061;-68
2023/06/11 02:29:03;;;;;;;180.27;63.90;;;;;;;21.06;47.89;101858.94;5011066;28;20088;-68
2023/06/11 02:31:29;;;;;;;192.43;66.38;;;;;;;21.05;48.05;101853.69;5011931;28;20084;-67
2023/06/11 02:33:54;;;;;;;178.32;64.65;;;;;;;21.06;48.15;101861.59;5004308;28;20022;-67
2023/06/11 02:36:20;;;;;;;179.88;63.97;;;;;;;21.05;47.77;101869.63;5013074;28;20191;-68
2023/06/11 02:38:45;;;;;;;183.32;66.45;;;;;;;21.02;48.30;101867.94;5012234;28;20026;-67
2023/06/11 02:41:10;;;;;;;187.25;66.53;;;;;;;21.04;48.68;101867.91;5012383;28;20205;-67
2023/06/11 02:43:35;;;;;;;183.50;64.63;;;;;;;21.02;48.31;101867.94;4995700;28;20040;-67
2023/06/11 02:46:01;;;;;;;185.48;65.60;;;;;;;21.02;48.18;101865.28;5012667;28;20116;-67
2023/06/11 02:48:26;;;;;;;182.32;67.25;;;;;;;21.01;48.16;101868.91;4995672;28;20029;-67
2023/06/11 02:50:51;;;;;;;183.10;65.68;;;;;;;21.00;48.04;101867.16;5013300;28;20034;-67
2023/06/11 02:53:17;;;;;;;183.20;64.53;;;;;;;21.00;48.23;101866.31;5010974;28;20032;-67
2023/06/11 02:55:42;;;;;;;182.48;65.30;;;;;;;20.98;48.26;101863.69;5012793;28;20059;-68
2023/06/11 02:58:08;;;;;;;177.05;65.15;;;;;;;20.98;47.93;101873.47;5012914;28;20041;-68
2023/06/11 03:00:33;;;;;;;183.30;66.88;;;;;;;20.97;48.41;101864.66;5013350;28;20392;-67
2023/06/11 03:02:58;;;;;;;176.48;64.95;;;;;;;20.98;48.42;101874.31;5012811;28;20109;-66
2023/06/11 03:05:24;;;;;;;181.90;64.63;;;;;;;20.97;48.21;101869.97;5012035;28;20482;-68
2023/06/11 03:07:49;;;;;;;184.95;65.50;;;;;;;20.97;48.50;101872.63;5012582;28;20547;-67
2023/06/11 03:10:14;;;;;;;181.65;65.15;;;;;;;20.96;48.37;101873.53;5011610;28;20053;-68
2023/06/11 03:12:40;;;;;;;180.57;64.35;;;;;;;20.97;48.19;101872.63;5012683;28;20061;-67
2023/06/11 03:15:06;;;;;;;181.25;64.88;;;;;;;20.96;48.34;101880.66;5011458;28;20487;-68
2023/06/11 03:17:31;;;;;;;181.10;64.60;;;;;;;20.95;48.34;101879.78;5010212;28;20101;-67
2023/06/11 03:19:56;;;;;;;182.45;65.88;;;;;;;20.93;48.23;101871.88;5011460;28;20125;-67
2023/06/11 03:22:22;;;;;;;182.57;64.82;;;;;;;20.92;48.29;101872.78;5011256;28;20040;-67
2023/06/11 03:24:47;;;;;;;184.35;65.18;;;;;;;20.91;48.14;101872.84;5011137;28;20037;-67
2023/06/11 03:27:12;;;;;;;183.02;66.05;;;;;;;20.91;48.24;101872.84;5012521;28;20034;-68
2023/06/11 03:29:38;;;;;;;181.20;65.68;;;;;;;20.90;48.35;101876.44;5004129;28;20026;-67
2023/06/11 03:32:04;;;;;;;181.85;65.68;;;;;;;20.91;48.39;101875.50;5011649;28;20034;-66
2023/06/11 03:34:29;;;;;;;181.95;65.03;;;;;;;20.92;48.58;101874.59;5011079;28;20112;-68
2023/06/11 03:36:55;;;;;;;177.50;63.55;;;;;;;20.92;48.51;101870.13;5012345;28;20064;-67
2023/06/11 03:39:20;;;;;;;185.00;65.03;;;;;;;20.91;48.13;101878.16;5011986;28;20046;-68
2023/06/11 03:41:45;;;;;;;184.95;65.15;;;;;;;20.92;48.26;101871.94;5011319;28;20032;-68
2023/06/11 03:44:11;;;;;;;199.48;67.15;;;;;;;20.92;48.48;101886.06;5010161;28;20396;-68
2023/06/11 03:46:37;;;;;;;181.45;63.42;;;;;;;20.93;48.32;101876.31;5012035;28;20048;-68
2023/06/11 03:49:02;;;;;;;183.65;65.97;;;;;;;20.92;48.22;101871.94;5012189;28;20029;-68
2023/06/11 03:51:27;;;;;;;180.68;64.90;;;;;;;20.93;48.02;101873.69;5010842;28;20498;-69
2023/06/11 03:53:52;;;;;;;182.13;65.07;;;;;;;20.92;48.16;101874.59;5009846;28;20025;-69
2023/06/11 03:56:18;;;;;;;182.65;64.60;;;;;;;20.94;48.24;101867.41;5011700;28;20096;-68
2023/06/11 03:58:43;;;;;;;181.45;63.90;;;;;;;20.96;48.15;101875.34;5012110;28;20037;-69
2023/06/11 04:01:09;;;;;;;186.98;66.28;;;;;;;20.96;48.17;101870.88;5011918;28;20072;-69
2023/06/11 04:03:34;;;;;;;175.13;65.60;;;;;;;20.97;48.43;101872.63;5011986;28;20462;-67
2023/06/11 04:06:00;;;;;;;183.38;65.43;;;;;;;20.98;47.89;101871.66;5010934;28;20030;-69
2023/06/11 04:08:26;;;;;;;175.88;63.90;;;;;;;20.98;48.12;101876.97;5011737;28;20186;-68
2023/06/11 04:10:51;;;;;;;174.30;64.63;;;;;;;21.00;48.20;101882.25;5012026;28;20064;-68
2023/06/11 04:13:16;;;;;;;183.07;67.03;;;;;;;21.00;47.96;101883.09;5011749;28;20502;-69
2023/06/11 04:15:42;;;;;;;182.75;65.78;;;;;;;21.00;48.36;101887.56;4994039;28;20018;-69
2023/06/11 04:18:07;;;;;;;187.98;66.00;;;;;;;21.01;48.35;101883.97;5007011;28;20037;-68
2023/06/11 04:20:32;;;;;;;180.00;66.20;;;;;;;21.01;48.12;101882.19;5011824;28;20076;-68
2023/06/11 04:22:58;;;;;;;181.10;64.13;;;;;;;21.02;47.88;101881.22;5010378;28;20487;-68
2023/06/11 04:25:23;;;;;;;181.15;66.03;;;;;;;21.01;48.23;101868.91;5011515;28;20058;-69
2023/06/11 04:27:49;;;;;;;184.68;66.75;;;;;;;21.04;48.12;101874.09;5010581;28;20521;-69
2023/06/11 04:30:14;;;;;;;182.13;65.22;;;;;;;21.03;48.09;101877.66;5010691;28;20053;-69
2023/06/11 04:32:40;;;;;;;181.73;66.05;;;;;;;21.03;48.00;101875.00;5010556;28;20049;-68
2023/06/11 04:35:06;;;;;;;180.73;65.30;;;;;;;21.04;48.29;101879.41;5010124;28;20215;-69
2023/06/11 04:37:38;;;;;;;184.50;66.53;;;;;;;21.06;48.30;101880.19;4994109;28;20025;-68
2023/06/11 04:40:10;;;;;;;183.13;66.25;;;;;;;21.05;48.09;101878.47;5011170;28;20030;-69
2023/06/11 04:42:42;;;;;;;183.35;66.28;;;;;;;21.05;48.00;101875.81;5010615;28;20030;-69
2023/06/11 04:45:10;;;;;;;183.25;66.88;;;;;;;21.06;47.96;101877.53;5004646;28;20553;-68
2023/06/11 04:47:36;;;;;;;184.40;66.70;;;;;;;21.07;47.71;101876.59;5010093;28;20106;-68
2023/06/11 04:50:04;;;;;;;183.52;66.78;;;;;;;21.08;47.99;101875.69;5009977;28;20097;-69
2023/06/11 04:52:35;;;;;;;185.30;66.63;;;;;;;21.10;47.82;101879.16;5013046;28;20026;-67
2023/06/11 04:55:01;;;;;;;183.82;67.20;;;;;;;21.10;48.19;101872.97;5012922;28;20407;-69
2023/06/11 04:57:27;;;;;;;181.68;65.00;;;;;;;21.13;48.02;101872.81;5015660;28;20026;-68
2023/06/11 04:59:53;;;;;;;183.13;65.45;;;;;;;21.14;47.70;101879.00;5014088;28;20029;-69
2023/06/11 05:02:18;;;;;;;187.48;66.70;;;;;;;21.14;48.00;101876.34;5013638;28;20341;-68
2023/06/11 05:04:44;;;;;;;196.70;68.82;;;;;;;21.14;47.71;101873.69;5013641;28;20398;-68
2023/06/11 05:07:09;;;;;;;182.95;65.30;;;;;;;21.16;47.94;101871.81;5014802;28;20024;-68
2023/06/11 05:09:34;;;;;;;182.73;65.90;;;;;;;21.16;47.63;101869.16;5014692;28;20061;-67
2023/06/11 05:12:00;;;;;;;186.15;67.45;;;;;;;21.18;47.88;101870.00;5014886;28;20116;-68
2023/06/11 05:14:25;;;;;;;184.73;67.15;;;;;;;21.18;47.52;101864.69;5014301;28;20470;-69
2023/06/11 05:16:50;;;;;;;183.38;67.25;;;;;;;21.21;47.58;101875.16;5014545;28;20072;-68
2023/06/11 05:19:16;;;;;;;183.93;66.18;;;;;;;21.21;47.57;101872.50;5013099;28;20025;-68
2023/06/11 05:21:41;;;;;;;184.77;66.65;;;;;;;21.21;47.63;101873.34;5013201;28;20061;-68
2023/06/11 05:24:07;;;;;;;185.02;66.10;;;;;;;21.23;47.59;101868.84;5013372;28;20434;-68
2023/06/11 05:26:35;;;;;;;184.73;64.95;;;;;;;21.24;47.27;101873.25;5014433;28;20057;-68
2023/06/11 05:29:02;;;;;;;186.07;66.53;;;;;;;21.24;47.47;101865.28;5013321;28;20057;-69
2023/06/11 05:31:29;;;;;;;181.43;65.38;;;;;;;21.24;47.42;101862.63;4995703;28;20049;-69
2023/06/11 05:33:55;;;;;;;186.57;66.85;;;;;;;21.27;47.26;101864.28;4997073;28;20028;-69
2023/06/11 05:36:21;;;;;;;180.75;64.90;;;;;;;21.29;47.42;101862.41;5012670;28;20026;-68
2023/06/11 05:38:46;;;;;;;181.98;66.40;;;;;;;21.32;47.16;101861.41;4997024;28;20026;-68
2023/06/11 05:41:12;;;;;;;194.60;69.22;;;;;;;21.34;47.25;101860.44;4996311;28;20032;-68
2023/06/11 05:43:37;;;;;;;180.15;64.90;;;;;;;21.34;47.14;101855.13;4996851;28;20026;-68
2023/06/11 05:46:03;;;;;;;182.38;65.47;;;;;;;21.34;47.00;101851.59;4996127;28;20025;-68
2023/06/11 05:48:29;;;;;;;181.15;65.57;;;;;;;21.40;47.18;101869.94;5013242;28;20044;-68
2023/06/11 05:50:54;;;;;;;175.85;64.13;;;;;;;21.43;47.09;101867.13;5012971;28;20105;-68
2023/06/11 05:53:20;;;;;;;190.77;66.32;;;;;;;21.44;46.56;101872.38;5012280;28;20168;-68
2023/06/11 05:55:45;;;;;;;187.65;67.72;;;;;;;21.47;46.88;101884.66;5012156;28;20033;-69
2023/06/11 05:58:11;;;;;;;184.18;65.47;;;;;;;21.49;46.51;101879.28;5012771;28;20044;-68
2023/06/11 06:00:37;;;;;;;183.00;66.03;;;;;;;21.52;46.63;101879.16;4996449;28;20498;-69
2023/06/11 06:03:03;;;;;;;184.43;67.32;;;;;;;21.53;46.93;101880.91;5013906;28;20112;-68
2023/06/11 06:05:29;;;;;;;186.35;66.97;;;;;;;21.56;46.86;101886.09;5013140;28;20033;-68
2023/06/11 06:07:54;;;;;;;183.20;66.07;;;;;;;21.58;46.93;101878.91;5006148;28;20030;-68
2023/06/11 06:10:20;;;;;;;182.60;66.32;;;;;;;21.60;46.66;101885.03;5013813;28;20026;-68
2023/06/11 06:12:45;;;;;;;183.40;65.18;;;;;;;21.62;47.00;101877.84;5013812;28;20050;-68
2023/06/11 06:15:11;;;;;;;185.57;67.57;;;;;;;21.64;46.77;101881.31;5012223;28;20034;-69
2023/06/11 06:17:36;;;;;;;196.55;69.65;;;;;;;21.68;46.71;101877.59;5012141;28;20376;-68
2023/06/11 06:20:02;;;;;;;180.70;66.03;;;;;;;21.73;46.81;101878.25;5046072;22;20483;-68
2023/06/11 06:22:27;;;;;;;182.93;66.53;;;;;;;21.83;46.65;101885.81;5039999;28;20017;-66
2023/06/11 06:24:53;;;;;;;188.15;67.25;;;;;;;21.94;45.88;101883.53;5038210;28;20033;-67
2023/06/11 06:27:18;;;;;;;186.75;65.18;;;;;;;21.99;45.98;101884.19;5033133;28;20018;-66
2023/06/11 06:29:43;;;;;;;183.27;64.88;;;;;;;22.07;45.88;101892.69;5030369;28;20025;-66
2023/06/11 06:32:09;;;;;;;180.88;66.55;;;;;;;22.14;46.09;101887.06;5034886;28;20021;-67
2023/06/11 06:34:35;;;;;;;188.77;69.07;;;;;;;22.22;45.83;101884.91;5032795;28;20036;-66
2023/06/11 06:37:00;;;;;;;177.65;66.32;;;;;;;22.28;45.49;101879.31;5033737;28;20032;-67
2023/06/11 06:39:26;;;;;;;181.02;67.90;;;;;;;22.36;45.75;101886.97;5017452;28;20454;-67
2023/06/11 06:41:52;;;;;;;190.88;68.20;;;;;;;22.52;44.99;101881.78;5020411;28;20100;-67
2023/06/11 06:44:17;;;;;;;198.25;68.72;;;;;;;22.71;44.43;101885.28;5001865;28;20025;-67
2023/06/11 06:46:42;;;;;;;182.65;66.53;;;;;;;22.86;44.61;101875.66;5034957;28;20022;-66
2023/06/11 06:49:08;;;;;;;183.18;64.43;;;;;;;23.04;43.86;101879.25;5015677;28;20037;-67
2023/06/11 06:51:33;;;;;;;175.98;65.25;;;;;;;23.24;43.98;101877.38;5016447;28;20097;-67
2023/06/11 06:53:59;;;;;;;184.60;64.90;;;;;;;23.44;43.55;101866.56;5033111;28;20046;-66
2023/06/11 06:56:24;;;;;;;184.05;64.63;;;;;;;23.71;42.47;101876.72;5032366;28;20037;-67
2023/06/11 06:58:50;;;;;;;187.02;67.15;;;;;;;24.03;42.30;101878.63;5031891;28;20421;-67
2023/06/11 07:01:15;;;;;;;184.73;65.22;;;;;;;24.35;41.51;101874.19;5031416;28;20026;-67
2023/06/11 07:03:41;;;;;;;184.27;65.57;;;;;;;24.76;39.88;101876.34;5031772;28;20418;-66
2023/06/11 07:06:06;;;;;;;188.10;66.30;;;;;;;25.21;38.97;101878.19;5030413;28;20025;-66
2023/06/11 07:08:32;;;;;;;184.38;67.43;;;;;;;25.59;38.50;101878.59;5022969;28;20095;-66
2023/06/11 07:10:57;;;;;;;187.82;67.38;;;;;;;26.02;37.58;101875.09;5027924;28;20104;-67
2023/06/11 07:13:23;;;;;;;179.77;67.22;;;;;;;26.40;36.60;101874.47;5032677;28;20017;-67
2023/06/11 07:15:48;;;;;;;187.48;69.28;;;;;;;26.53;36.78;101862.94;5022892;28;20099;-67
2023/06/11 07:18:14;;;;;;;187.38;68.82;;;;;;;26.68;36.02;101869.97;5030428;28;20052;-68
2023/06/11 07:20:39;;;;;;;189.02;69.32;;;;;;;26.87;36.08;101866.94;5019647;28;20030;-68
2023/06/11 07:23:05;;;;;;;185.90;69.65;;;;;;;27.10;35.24;101865.38;5028937;28;20040;-68
2023/06/11 07:25:31;;;;;;;188.35;70.25;;;;;;;27.27;35.44;101869.63;5032197;28;20037;-68
2023/06/11 07:27:58;;;;;;;193.95;71.22;;;;;;;27.29;35.08;101875.72;5029299;28;20056;-68
2023/06/11 07:30:24;;;;;;;193.75;71.45;;;;;;;27.54;34.79;101876.75;5014582;28;20032;-66
2023/06/11 07:32:50;;;;;;;186.70;69.88;;;;;;;27.57;34.89;101870.28;5030079;28;20509;-66
2023/06/11 07:35:16;;;;;;;186.43;71.97;;;;;;;27.91;33.84;101871.47;5030771;28;20032;-66
2023/06/11 07:37:41;;;;;;;188.18;69.68;;;;;;;27.97;33.54;101878.22;5029446;28;20124;-66
2023/06/11 07:40:07;;;;;;;185.82;69.13;;;;;;;27.93;34.13;101876.72;5022616;28;20064;-66
2023/06/11 07:42:32;;;;;;;183.00;68.45;;;;;;;28.08;33.60;101874.78;5031354;28;20056;-66
2023/06/11 07:44:58;;;;;;;187.85;70.13;;;;;;;28.09;33.51;101874.69;5031820;28;20500;-66
2023/06/11 07:47:23;;;;;;;182.60;67.22;;;;;;;28.15;33.81;101871.56;5030106;28;20450;-66
2023/06/11 07:49:49;;;;;;;183.40;68.07;;;;;;;28.07;33.47;101873.06;5032041;28;20432;-66
2023/06/11 07:52:14;;;;;;;184.85;69.05;;;;;;;28.08;33.79;101870.28;5027445;28;20382;-66
2023/06/11 07:54:41;;;;;;;181.73;66.65;;;;;;;28.04;33.94;101874.16;5019983;28;20060;-66
2023/06/11 07:57:06;;;;;;;184.13;66.90;;;;;;;27.92;33.66;101875.00;5018213;28;20026;-66
2023/06/11 07:59:32;;;;;;;186.93;69.22;;;;;;;27.74;33.94;101871.81;5029528;28;20036;-65
2023/06/11 08:01:57;;;;;;;186.75;68.15;;;;;;;27.38;35.10;101874.28;5030867;28;20060;-66
2023/06/11 08:04:23;;;;;;;190.77;70.15;;;;;;;27.01;35.56;101874.09;5031557;28;20664;-66
2023/06/11 08:06:49;;;;;;;186.10;68.63;;;;;;;26.68;36.75;101878.00;5025634;28;20057;-66
2023/06/11 08:09:14;;;;;;;186.20;69.78;;;;;;;26.29;36.97;101876.97;5026696;28;20076;-66
2023/06/11 08:11:41;;;;;;;184.93;70.22;;;;;;;26.00;38.02;101871.63;5031136;28;20021;-66
2023/06/11 08:14:06;;;;;;;191.75;69.70;;;;;;;25.66;38.28;101873.75;5031486;28;20162;-66
2023/06/11 08:16:32;;;;;;;183.13;68.60;;;;;;;25.33;39.38;101874.81;5028181;28;20064;-66
2023/06/11 08:18:58;;;;;;;185.30;68.15;;;;;;;25.13;39.55;101871.50;5012817;28;20064;-66
2023/06/11 08:21:24;;;;;;;186.45;68.20;;;;;;;25.04;39.39;101865.84;5015004;28;20104;-66
2023/06/11 08:23:51;;;;;;;185.75;68.90;;;;;;;24.90;40.62;101869.34;5031488;28;20062;-66
2023/06/11 08:26:17;;;;;;;187.00;70.70;;;;;;;24.77;40.44;101874.50;5032657;28;20033;-66
2023/06/11 08:28:43;;;;;;;184.50;68.68;;;;;;;24.54;40.93;101867.78;5030694;28;20395;-66
2023/06/11 08:31:08;;;;;;;181.35;69.05;;;;;;;24.36;41.14;101869.69;5014753;28;20029;-66
2023/06/11 08:33:33;;;;;;;200.07;70.97;;;;;;;24.20;42.29;101870.56;5019450;28;20068;-66
2023/06/11 08:35:59;;;;;;;193.18;70.70;;;;;;;24.00;42.21;101874.31;5032963;28;20037;-67
2023/06/11 08:38:27;;;;;;;183.32;66.93;;;;;;;23.99;42.38;101874.41;5033683;28;20100;-67
2023/06/11 08:40:53;;;;;;;183.35;68.60;;;;;;;23.90;42.60;101875.75;5034204;28;20061;-67
2023/06/11 08:43:19;;;;;;;200.18;71.50;;;;;;;23.79;43.15;101866.50;5018954;28;20123;-67
2023/06/11 08:45:45;;;;;;;183.40;67.70;;;;;;;23.65;43.47;101868.19;5030628;28;20032;-67
2023/06/11 08:48:11;;;;;;;186.48;69.68;;;;;;;23.59;43.44;101864.03;5033530;28;20088;-67
2023/06/11 08:50:37;;;;;;;185.63;67.80;;;;;;;23.51;44.01;101860.91;5027336;28;20025;-67
2023/06/11 08:53:03;;;;;;;185.60;68.63;;;;;;;23.44;44.04;101866.56;5032803;28;20013;-67
2023/06/11 08:55:29;;;;;;;190.30;67.85;;;;;;;23.39;43.61;101868.59;5034980;28;20471;-67
2023/06/11 08:57:54;;;;;;;185.00;67.90;;;;;;;23.36;43.89;101863.44;5033292;28;20390;-66
2023/06/11 09:00:21;;;;;;;185.13;69.30;;;;;;;23.32;43.92;101861.88;5033813;28;20021;-67
2023/06/11 09:02:46;;;;;;;182.55;67.72;;;;;;;23.30;43.75;101874.38;5034350;28;20018;-67
2023/06/11 09:05:12;;;;;;;186.57;68.97;;;;;;;23.26;44.04;101864.81;5034283;28;20039;-67
2023/06/11 09:07:37;;;;;;;185.90;68.07;;;;;;;23.23;44.25;101873.00;5025715;28;20018;-67
2023/06/11 09:10:03;;;;;;;185.85;67.47;;;;;;;23.22;44.59;101871.25;5015199;28;20553;-67
2023/06/11 09:12:28;;;;;;;184.32;68.07;;;;;;;23.21;44.76;101874.88;5022149;28;20020;-67
2023/06/11 09:14:53;;;;;;;182.70;66.57;;;;;;;23.21;44.21;101866.88;5033290;28;20038;-67
2023/06/11 09:17:19;;;;;;;181.95;66.20;;;;;;;23.19;44.89;101869.63;5033034;28;20490;-67
2023/06/11 09:19:45;;;;;;;187.93;67.85;;;;;;;23.15;44.66;101864.53;5033387;28;20030;-67
2023/06/11 09:22:10;;;;;;;184.40;66.65;;;;;;;23.12;45.48;101868.16;5028266;28;20021;-67
2023/06/11 09:24:35;;;;;;;184.65;67.30;;;;;;;23.13;45.20;101869.94;5020125;28;20386;-67
2023/06/11 09:27:01;;;;;;;185.15;67.65;;;;;;;23.10;45.30;101868.25;5032595;28;20363;-67
2023/06/11 09:29:27;;;;;;;181.85;66.55;;;;;;;23.10;44.72;101867.41;5032889;28;20541;-67
2023/06/11 09:32:03;;;;;;;188.23;67.78;;;;;;;23.08;45.49;101869.28;5032976;28;20022;-67
2023/06/11 09:34:29;;;;;;;185.55;68.13;;;;;;;23.09;44.52;101868.34;5033151;28;20022;-67
2023/06/11 09:36:54;;;;;;;187.90;67.03;;;;;;;23.08;45.14;101879.94;5015683;28;20039;-66
2023/06/11 09:39:19;;;;;;;191.68;68.25;;;;;;;23.07;44.71;101863.09;5033438;28;20075;-67
2023/06/11 09:41:50;;;;;;;189.25;68.82;;;;;;;23.05;45.07;101872.09;5032371;28;20022;-67
2023/06/11 09:44:19;;;;;;;194.07;69.88;;;;;;;23.06;45.11;101872.00;5032879;28;20053;-67
2023/06/11 09:46:48;;;;;;;189.65;66.88;;;;;;;23.05;45.02;101867.63;5033838;28;20021;-67
2023/06/11 09:49:15;;;;;;;183.40;66.22;;;;;;;23.04;45.25;101873.91;5033120;28;20021;-67
2023/06/11 09:51:41;;;;;;;183.32;68.05;;;;;;;23.00;44.92;101876.78;5032515;28;20070;-67
2023/06/11 09:54:09;;;;;;;196.95;69.68;;;;;;;23.00;45.86;101867.00;5031755;28;20100;-67
2023/06/11 09:56:35;;;;;;;182.95;67.00;;;;;;;23.00;45.70;101867.00;5033128;28;20112;-67
2023/06/11 09:59:02;;;;;;;183.18;67.18;;;;;;;22.98;45.40;101866.22;5029731;28;20030;-66
2023/06/11 10:01:29;;;;;;;187.63;67.70;;;;;;;22.95;45.46;101869.03;5013152;28;20072;-67
2023/06/11 10:03:55;;;;;;;181.10;66.43;;;;;;;22.91;45.98;101878.97;5014314;28;20030;-67
2023/06/11 10:06:25;;;;;;;177.75;65.43;;;;;;;22.89;45.68;101880.88;5031184;28;20401;-67
2023/06/11 10:08:52;;;;;;;178.23;64.72;;;;;;;22.88;45.72;101884.47;5031515;28;20025;-67
2023/06/11 10:11:20;;;;;;;182.43;66.90;;;;;;;22.89;45.88;101874.66;5014193;28;20498;-66
2023/06/11 10:13:56;;;;;;;187.20;68.00;;;;;;;22.87;45.47;101871.22;5012966;28;20021;-67
2023/06/11 10:16:22;;;;;;;182.38;68.18;;;;;;;22.86;46.14;101869.47;5028182;28;20021;-67
2023/06/11 10:18:49;;;;;;;184.02;66.75;;;;;;;22.83;45.54;101874.97;5031517;28;20032;-67
2023/06/11 10:21:14;;;;;;;182.38;66.05;;;;;;;22.81;46.11;101871.50;4996388;28;20030;-66
2023/06/11 10:23:41;;;;;;;182.18;67.63;;;;;;;22.78;45.84;101868.06;5012724;28;20093;-66
2023/06/11 10:26:08;;;;;;;179.43;66.70;;;;;;;22.77;45.69;101865.50;5013705;28;20039;-66
2023/06/11 10:28:44;;;;;;;183.73;67.72;;;;;;;22.76;45.75;101864.59;5018886;28;20017;-66
2023/06/11 10:31:10;;;;;;;181.75;66.72;;;;;;;22.73;46.07;101864.78;5029689;28;20390;-66
2023/06/11 10:33:45;;;;;;;182.40;67.70;;;;;;;22.73;46.41;101859.44;5025244;28;20014;-67
2023/06/11 10:36:24;;;;;;;176.10;65.55;;;;;;;22.71;45.64;101855.97;5029832;28;20424;-67
2023/06/11 10:38:51;;;;;;;184.90;68.80;;;;;;;22.70;45.87;101854.28;5012356;28;20076;-66
2023/06/11 10:41:26;;;;;;;185.88;72.35;;;;;;;22.68;45.54;101853.47;5026177;28;20060;-67
2023/06/11 10:43:52;;;;;;;186.43;67.55;;;;;;;22.66;46.38;101855.38;5030138;28;20028;-67
2023/06/11 10:46:18;;;;;;;183.23;66.97;;;;;;;22.64;45.92;101854.56;5031675;28;20033;-68
2023/06/11 10:48:50;;;;;;;186.25;68.20;;;;;;;22.64;46.30;101853.72;5031178;28;20027;-67
2023/06/11 10:51:15;;;;;;;187.88;67.57;;;;;;;22.62;45.88;101853.78;5032091;28;20025;-67
2023/06/11 10:53:41;;;;;;;183.18;66.65;;;;;;;22.59;46.43;101852.13;5024014;28;20014;-67
2023/06/11 10:56:07;;;;;;;182.13;67.18;;;;;;;22.57;46.33;101854.00;5029943;28;20121;-68
2023/06/11 10:58:33;;;;;;;182.43;66.88;;;;;;;22.57;46.37;101850.47;5018492;28;20026;-68